sensor_id;sensor_type;location;lat;lon;timestamp;pressure;altitude;pressure_sealevel;temperature;humidity
79144;BME280;68551;47.484;19.092;2023-04-19T00:02:14;100352.22;;;14.35;41.54
79144;BME280;68551;47.484;19.092;2023-04-19T00:05:20;100331.91;;;14.31;42.33
79144;BME280;68551;47.484;19.092;2023-04-19T00:08:28;100345.66;;;14.36;42.36
79144;BME280;68551;47.484;19.092;2023-04-19T00:11:30;100337.69;;;14.34;41.86
79144;BME280;68551;47.484;19.092;2023-04-19T00:14:35;100334.06;;;14.29;42.08
79144;BME280;68551;47.484;19.092;2023-04-19T00:17:37;100332.16;;;14.29;42.00
79144;BME280;68551;47.484;19.092;2023-04-19T00:20:39;100334.88;;;14.29;42.17
79144;BME280;68551;47.484;19.092;2023-04-19T00:23:41;100326.41;;;14.31;41.75
79144;BME280;68551;47.484;19.092;2023-04-19T00:26:49;100322.00;;;14.30;42.38
79144;BME280;68551;47.484;19.092;2023-04-19T00:29:59;100328.00;;;14.27;41.99
79144;BME280;68551;47.484;19.092;2023-04-19T00:33:02;100318.09;;;14.26;41.91
79144;BME280;68551;47.484;19.092;2023-04-19T00:36:04;100314.88;;;14.12;42.28
79144;BME280;68551;47.484;19.092;2023-04-19T00:39:09;100319.41;;;14.06;42.33
79144;BME280;68551;47.484;19.092;2023-04-19T00:42:12;100316.03;;;13.99;42.10
79144;BME280;68551;47.484;19.092;2023-04-19T00:45:14;100324.75;;;13.96;42.73
79144;BME280;68551;47.484;19.092;2023-04-19T00:48:17;100320.34;;;13.95;42.45
79144;BME280;68551;47.484;19.092;2023-04-19T00:51:20;100323.06;;;13.95;42.40
79144;BME280;68551;47.484;19.092;2023-04-19T00:54:25;100311.94;;;13.85;43.21
79144;BME280;68551;47.484;19.092;2023-04-19T00:57:28;100314.09;;;13.83;43.56
79144;BME280;68551;47.484;19.092;2023-04-19T01:00:32;100316.25;;;13.81;43.65
79144;BME280;68551;47.484;19.092;2023-04-19T01:03:35;100302.16;;;13.72;43.32
79144;BME280;68551;47.484;19.092;2023-04-19T01:06:39;100299.16;;;13.74;43.28
79144;BME280;68551;47.484;19.092;2023-04-19T01:09:47;100298.91;;;13.75;43.31
79144;BME280;68551;47.484;19.092;2023-04-19T01:12:50;100302.16;;;13.72;43.30
79144;BME280;68551;47.484;19.092;2023-04-19T01:15:53;100289.34;;;13.61;43.38
79144;BME280;68551;47.484;19.092;2023-04-19T01:18:58;100297.16;;;13.69;43.34
79144;BME280;68551;47.484;19.092;2023-04-19T01:22:05;100297.41;;;13.68;42.77
79144;BME280;68551;47.484;19.092;2023-04-19T01:25:10;100279.56;;;13.65;43.42
79144;BME280;68551;47.484;19.092;2023-04-19T01:28:12;100278.41;;;13.61;43.31
79144;BME280;68551;47.484;19.092;2023-04-19T01:31:18;100288.53;;;13.61;43.16
79144;BME280;68551;47.484;19.092;2023-04-19T01:34:26;100280.22;;;13.56;43.08
79144;BME280;68551;47.484;19.092;2023-04-19T01:37:34;100284.59;;;13.57;42.97
79144;BME280;68551;47.484;19.092;2023-04-19T01:40:38;100284.84;;;13.55;41.90
79144;BME280;68551;47.484;19.092;2023-04-19T01:43:41;100261.44;;;13.47;42.33
79144;BME280;68551;47.484;19.092;2023-04-19T01:46:45;100278.53;;;13.55;42.32
79144;BME280;68551;47.484;19.092;2023-04-19T01:49:48;100261.44;;;13.47;42.99
79144;BME280;68551;47.484;19.092;2023-04-19T01:52:50;100263.94;;;13.49;42.60
79144;BME280;68551;47.484;19.092;2023-04-19T01:55:54;100270.56;;;13.53;43.15
79144;BME280;68551;47.484;19.092;2023-04-19T01:59:00;100269.16;;;13.51;42.32
79144;BME280;68551;47.484;19.092;2023-04-19T02:02:06;100257.06;;;13.46;42.65
79144;BME280;68551;47.484;19.092;2023-04-19T02:05:13;100260.47;;;13.54;42.40
79144;BME280;68551;47.484;19.092;2023-04-19T02:08:18;100262.25;;;13.48;42.66
79144;BME280;68551;47.484;19.092;2023-04-19T02:11:23;100260.94;;;13.51;42.73
79144;BME280;68551;47.484;19.092;2023-04-19T02:14:25;100254.63;;;13.50;43.08
79144;BME280;68551;47.484;19.092;2023-04-19T02:17:28;100255.16;;;13.47;42.81
79144;BME280;68551;47.484;19.092;2023-04-19T02:20:34;100259.22;;;13.44;43.35
79144;BME280;68551;47.484;19.092;2023-04-19T02:23:40;100247.56;;;13.37;43.00
79144;BME280;68551;47.484;19.092;2023-04-19T02:26:46;100240.19;;;13.38;43.21
79144;BME280;68551;47.484;19.092;2023-04-19T02:29:51;100247.09;;;13.40;43.60
79144;BME280;68551;47.484;19.092;2023-04-19T02:32:55;100248.63;;;13.36;44.01
79144;BME280;68551;47.484;19.092;2023-04-19T02:36:01;100246.50;;;13.38;43.44
79144;BME280;68551;47.484;19.092;2023-04-19T02:39:03;100233.28;;;13.35;44.16
79144;BME280;68551;47.484;19.092;2023-04-19T02:42:06;100230.97;;;13.27;44.33
79144;BME280;68551;47.484;19.092;2023-04-19T02:45:09;100227.53;;;13.20;44.72
79144;BME280;68551;47.484;19.092;2023-04-19T02:48:14;100238.16;;;13.17;45.39
79144;BME280;68551;47.484;19.092;2023-04-19T02:51:18;100222.84;;;13.04;46.24
79144;BME280;68551;47.484;19.092;2023-04-19T02:54:21;100215.19;;;13.06;46.26
79144;BME280;68551;47.484;19.092;2023-04-19T02:57:23;100218.53;;;13.08;46.90
79144;BME280;68551;47.484;19.092;2023-04-19T03:00:28;100206.81;;;12.96;46.99
79144;BME280;68551;47.484;19.092;2023-04-19T03:03:42;100220.34;;;13.02;47.79
79144;BME280;68551;47.484;19.092;2023-04-19T03:06:47;100208.00;;;13.00;47.75
79144;BME280;68551;47.484;19.092;2023-04-19T03:09:55;100207.00;;;13.06;47.80
79144;BME280;68551;47.484;19.092;2023-04-19T03:12:57;100202.63;;;13.05;48.06
79144;BME280;68551;47.484;19.092;2023-04-19T03:16:02;100207.63;;;12.96;48.62
79144;BME280;68551;47.484;19.092;2023-04-19T03:19:06;100196.63;;;12.91;48.56
79144;BME280;68551;47.484;19.092;2023-04-19T03:22:14;100192.13;;;12.85;49.32
79144;BME280;68551;47.484;19.092;2023-04-19T03:25:19;100192.13;;;12.85;49.60
79144;BME280;68551;47.484;19.092;2023-04-19T03:28:28;100200.56;;;12.84;49.95
79144;BME280;68551;47.484;19.092;2023-04-19T03:31:59;100192.59;;;12.82;50.08
79144;BME280;68551;47.484;19.092;2023-04-19T03:35:07;100186.81;;;12.67;50.74
79144;BME280;68551;47.484;19.092;2023-04-19T03:38:16;100185.91;;;12.61;50.84
79144;BME280;68551;47.484;19.092;2023-04-19T03:41:23;100182.47;;;12.54;51.83
79144;BME280;68551;47.484;19.092;2023-04-19T03:44:39;100189.00;;;12.53;52.06
79144;BME280;68551;47.484;19.092;2023-04-19T03:47:42;100199.69;;;12.55;51.72
79144;BME280;68551;47.484;19.092;2023-04-19T03:50:50;100192.97;;;12.46;52.05
79144;BME280;68551;47.484;19.092;2023-04-19T03:53:56;100190.56;;;12.37;52.77
79144;BME280;68551;47.484;19.092;2023-04-19T03:57:02;100191.09;;;12.34;53.41
79144;BME280;68551;47.484;19.092;2023-04-19T04:00:06;100187.63;;;12.39;52.62
79144;BME280;68551;47.484;19.092;2023-04-19T04:03:17;100190.25;;;12.34;52.91
79144;BME280;68551;47.484;19.092;2023-04-19T04:06:19;100190.59;;;12.26;52.90
79144;BME280;68551;47.484;19.092;2023-04-19T04:09:22;100194.06;;;12.33;52.78
79144;BME280;68551;47.484;19.092;2023-04-19T04:12:25;100191.91;;;12.35;52.92
79144;BME280;68551;47.484;19.092;2023-04-19T04:15:31;100190.56;;;12.37;52.37
79144;BME280;68551;47.484;19.092;2023-04-19T04:18:36;100186.78;;;12.38;52.92
79144;BME280;68551;47.484;19.092;2023-04-19T04:21:44;100187.13;;;12.42;53.26
79144;BME280;68551;47.484;19.092;2023-04-19T04:24:47;100188.31;;;12.46;53.58
79144;BME280;68551;47.484;19.092;2023-04-19T04:28:12;100183.94;;;12.45;52.75
79144;BME280;68551;47.484;19.092;2023-04-19T04:31:15;100189.63;;;12.43;53.29
79144;BME280;68551;47.484;19.092;2023-04-19T04:34:22;100178.81;;;12.37;53.39
79144;BME280;68551;47.484;19.092;2023-04-19T04:37:33;100189.47;;;12.50;53.42
79144;BME280;68551;47.484;19.092;2023-04-19T04:40:36;100182.94;;;12.51;53.54
79144;BME280;68551;47.484;19.092;2023-04-19T04:43:42;100180.91;;;12.58;53.25
79144;BME280;68551;47.484;19.092;2023-04-19T04:46:46;100185.31;;;12.59;53.28
79144;BME280;68551;47.484;19.092;2023-04-19T04:49:54;100179.44;;;12.67;52.93
79144;BME280;68551;47.484;19.092;2023-04-19T04:52:58;100189.44;;;12.73;52.80
79144;BME280;68551;47.484;19.092;2023-04-19T04:56:05;100179.66;;;12.77;52.33
79144;BME280;68551;47.484;19.092;2023-04-19T04:59:11;100164.00;;;12.73;52.03
79144;BME280;68551;47.484;19.092;2023-04-19T05:02:17;100182.13;;;12.91;51.73
79144;BME280;68551;47.484;19.092;2023-04-19T05:05:20;100177.56;;;12.96;50.71
79144;BME280;68551;47.484;19.092;2023-04-19T05:08:25;100174.50;;;13.09;50.40
79144;BME280;68551;47.484;19.092;2023-04-19T05:11:35;100174.34;;;13.28;50.43
79144;BME280;68551;47.484;19.092;2023-04-19T05:14:40;100172.09;;;13.41;49.58
79144;BME280;68551;47.484;19.092;2023-04-19T05:17:43;100176.66;;;13.53;49.45
79144;BME280;68551;47.484;19.092;2023-04-19T05:20:47;100172.94;;;13.59;47.99
79144;BME280;68551;47.484;19.092;2023-04-19T05:23:59;100171.19;;;13.69;48.09
79144;BME280;68551;47.484;19.092;2023-04-19T05:27:04;100177.16;;;13.83;46.95
79144;BME280;68551;47.484;19.092;2023-04-19T05:30:09;100175.97;;;13.96;47.01
79144;BME280;68551;47.484;19.092;2023-04-19T05:33:15;100171.09;;;14.19;46.19
79144;BME280;68551;47.484;19.092;2023-04-19T05:36:20;100171.06;;;14.36;45.15
79144;BME280;68551;47.484;19.092;2023-04-19T05:39:23;100164.91;;;14.68;44.89
79144;BME280;68551;47.484;19.092;2023-04-19T05:42:26;100167.00;;;14.82;45.10
79144;BME280;68551;47.484;19.092;2023-04-19T05:45:31;100170.56;;;14.83;44.63
79144;BME280;68551;47.484;19.092;2023-04-19T05:48:35;100164.19;;;14.77;44.27
79144;BME280;68551;47.484;19.092;2023-04-19T05:52:01;100178.09;;;15.19;43.40
79144;BME280;68551;47.484;19.092;2023-04-19T05:55:12;100163.63;;;15.56;42.51
79144;BME280;68551;47.484;19.092;2023-04-19T05:58:21;100156.75;;;15.58;42.35
79144;BME280;68551;47.484;19.092;2023-04-19T06:01:24;100154.78;;;15.54;42.55
79144;BME280;68551;47.484;19.092;2023-04-19T06:04:27;100161.16;;;15.59;41.79
79144;BME280;68551;47.484;19.092;2023-04-19T06:07:30;100157.38;;;15.66;41.22
79144;BME280;68551;47.484;19.092;2023-04-19T06:10:39;100166.50;;;16.13;39.98
79144;BME280;68551;47.484;19.092;2023-04-19T06:14:01;100153.00;;;16.64;39.40
79144;BME280;68551;47.484;19.092;2023-04-19T06:17:03;100159.22;;;17.12;38.14
79144;BME280;68551;47.484;19.092;2023-04-19T06:20:08;100150.44;;;17.40;37.63
79144;BME280;68551;47.484;19.092;2023-04-19T06:23:18;100150.94;;;17.17;37.26
79144;BME280;68551;47.484;19.092;2023-04-19T06:26:20;100142.63;;;16.86;37.79
79144;BME280;68551;47.484;19.092;2023-04-19T06:29:22;100154.06;;;16.58;38.40
79144;BME280;68551;47.484;19.092;2023-04-19T06:32:25;100144.34;;;16.35;39.18
79144;BME280;68551;47.484;19.092;2023-04-19T06:35:32;100160.25;;;16.28;39.58
79144;BME280;68551;47.484;19.092;2023-04-19T06:38:35;100149.00;;;16.35;39.96
79144;BME280;68551;47.484;19.092;2023-04-19T06:41:40;100138.84;;;16.35;39.79
79144;BME280;68551;47.484;19.092;2023-04-19T06:44:42;100154.31;;;16.51;40.52
79144;BME280;68551;47.484;19.092;2023-04-19T06:47:44;100143.97;;;16.69;39.93
79144;BME280;68551;47.484;19.092;2023-04-19T06:50:47;100135.47;;;16.80;39.89
79144;BME280;68551;47.484;19.092;2023-04-19T06:53:51;100143.19;;;16.93;39.42
79144;BME280;68551;47.484;19.092;2023-04-19T06:56:56;100135.25;;;17.17;39.33
79144;BME280;68551;47.484;19.092;2023-04-19T06:59:58;100125.63;;;17.40;39.28
79144;BME280;68551;47.484;19.092;2023-04-19T07:03:01;100131.94;;;17.56;38.12
79144;BME280;68551;47.484;19.092;2023-04-19T07:06:08;100132.78;;;17.87;37.09
79144;BME280;68551;47.484;19.092;2023-04-19T07:09:13;100121.03;;;18.40;36.76
79144;BME280;68551;47.484;19.092;2023-04-19T07:12:18;100112.63;;;19.54;33.97
79144;BME280;68551;47.484;19.092;2023-04-19T07:15:27;100116.81;;;20.04;32.21
79144;BME280;68551;47.484;19.092;2023-04-19T07:18:32;100123.59;;;20.17;32.69
79144;BME280;68551;47.484;19.092;2023-04-19T07:21:34;100111.84;;;21.10;31.82
79144;BME280;68551;47.484;19.092;2023-04-19T07:24:36;100109.56;;;21.82;29.23
79144;BME280;68551;47.484;19.092;2023-04-19T07:27:41;100107.66;;;22.10;27.26
79144;BME280;68551;47.484;19.092;2023-04-19T07:30:43;100103.97;;;22.56;25.79
79144;BME280;68551;47.484;19.092;2023-04-19T07:33:47;100101.78;;;22.67;24.84
79144;BME280;68551;47.484;19.092;2023-04-19T07:36:54;100105.78;;;22.88;24.89
79144;BME280;68551;47.484;19.092;2023-04-19T07:39:56;100098.59;;;23.09;24.38
79144;BME280;68551;47.484;19.092;2023-04-19T07:43:01;100096.84;;;23.13;23.18
79144;BME280;68551;47.484;19.092;2023-04-19T07:46:13;100091.66;;;23.20;23.49
79144;BME280;68551;47.484;19.092;2023-04-19T07:49:19;100089.63;;;23.79;24.89
79144;BME280;68551;47.484;19.092;2023-04-19T07:52:22;100095.50;;;24.40;22.33
79144;BME280;68551;47.484;19.092;2023-04-19T07:55:24;100088.47;;;24.59;22.11
79144;BME280;68551;47.484;19.092;2023-04-19T07:58:29;100091.69;;;24.27;21.62
79144;BME280;68551;47.484;19.092;2023-04-19T08:01:31;100089.63;;;24.50;21.54
79144;BME280;68551;47.484;19.092;2023-04-19T08:04:34;100087.13;;;24.40;21.51
79144;BME280;68551;47.484;19.092;2023-04-19T08:07:42;100089.16;;;24.56;20.62
79144;BME280;68551;47.484;19.092;2023-04-19T08:10:47;100080.63;;;24.13;20.89
79144;BME280;68551;47.484;19.092;2023-04-19T08:13:58;100079.03;;;23.59;20.85
79144;BME280;68551;47.484;19.092;2023-04-19T08:17:21;100084.13;;;22.98;21.71
79144;BME280;68551;47.484;19.092;2023-04-19T08:20:30;100090.97;;;21.97;23.77
79144;BME280;68551;47.484;19.092;2023-04-19T08:23:33;100096.66;;;21.27;24.99
79144;BME280;68551;47.484;19.092;2023-04-19T08:26:49;100083.19;;;22.40;24.01
79144;BME280;68551;47.484;19.092;2023-04-19T08:29:57;100085.06;;;22.17;24.50
79144;BME280;68551;47.484;19.092;2023-04-19T08:32:59;100081.72;;;21.87;24.10
79144;BME280;68551;47.484;19.092;2023-04-19T08:36:02;100071.28;;;22.39;23.23
79144;BME280;68551;47.484;19.092;2023-04-19T08:39:05;100071.53;;;23.15;22.93
79144;BME280;68551;47.484;19.092;2023-04-19T08:42:22;100066.09;;;22.74;23.52
79144;BME280;68551;47.484;19.092;2023-04-19T08:45:40;100065.09;;;22.56;24.63
79144;BME280;68551;47.484;19.092;2023-04-19T08:48:48;100061.31;;;23.32;24.69
79144;BME280;68551;47.484;19.092;2023-04-19T08:51:58;100069.69;;;23.10;23.71
79144;BME280;68551;47.484;19.092;2023-04-19T08:55:06;100072.91;;;22.40;24.59
79144;BME280;68551;47.484;19.092;2023-04-19T08:58:08;100068.56;;;21.79;24.29
79144;BME280;68551;47.484;19.092;2023-04-19T09:01:36;100064.34;;;21.36;24.95
79144;BME280;68551;47.484;19.092;2023-04-19T09:04:38;100064.38;;;20.98;27.12
79144;BME280;68551;47.484;19.092;2023-04-19T09:07:44;100065.50;;;21.16;27.07
79144;BME280;68551;47.484;19.092;2023-04-19T09:11:02;100054.03;;;21.22;27.66
79144;BME280;68551;47.484;19.092;2023-04-19T09:14:13;100053.19;;;20.71;29.44
79144;BME280;68551;47.484;19.092;2023-04-19T09:17:19;100064.16;;;20.57;30.81
79144;BME280;68551;47.484;19.092;2023-04-19T09:20:35;100046.94;;;20.41;30.83
79144;BME280;68551;47.484;19.092;2023-04-19T09:23:45;100056.31;;;20.45;30.83
79144;BME280;68551;47.484;19.092;2023-04-19T09:26:57;100055.31;;;21.11;29.30
79144;BME280;68551;47.484;19.092;2023-04-19T09:30:00;100048.25;;;22.25;27.63
79144;BME280;68551;47.484;19.092;2023-04-19T09:33:06;100052.84;;;22.93;26.91
79144;BME280;68551;47.484;19.092;2023-04-19T09:36:09;100043.91;;;22.46;26.43
79144;BME280;68551;47.484;19.092;2023-04-19T09:39:30;100056.44;;;21.62;28.04
79144;BME280;68551;47.484;19.092;2023-04-19T09:42:45;100042.47;;;21.80;28.32
79144;BME280;68551;47.484;19.092;2023-04-19T09:45:52;100045.84;;;22.59;26.54
79144;BME280;68551;47.484;19.092;2023-04-19T09:52:34;100041.78;;;23.68;26.73
79144;BME280;68551;47.484;19.092;2023-04-19T09:55:37;100047.28;;;24.30;25.59
79144;BME280;68551;47.484;19.092;2023-04-19T09:59:02;100040.06;;;24.29;25.75
79144;BME280;68551;47.484;19.092;2023-04-19T10:02:23;100034.03;;;24.36;24.23
79144;BME280;68551;47.484;19.092;2023-04-19T10:05:27;100036.00;;;24.35;24.42
79144;BME280;68551;47.484;19.092;2023-04-19T10:08:31;100030.25;;;24.32;25.19
79144;BME280;68551;47.484;19.092;2023-04-19T10:11:37;100031.78;;;24.55;25.25
79144;BME280;68551;47.484;19.092;2023-04-19T10:14:46;100017.22;;;24.84;25.48
79144;BME280;68551;47.484;19.092;2023-04-19T10:17:54;100021.28;;;25.38;23.97
79144;BME280;68551;47.484;19.092;2023-04-19T10:21:03;100011.28;;;25.37;23.83
79144;BME280;68551;47.484;19.092;2023-04-19T10:24:08;100016.91;;;24.94;23.55
79144;BME280;68551;47.484;19.092;2023-04-19T10:27:13;100020.16;;;23.96;24.86
79144;BME280;68551;47.484;19.092;2023-04-19T10:30:17;100019.25;;;23.25;25.36
79144;BME280;68551;47.484;19.092;2023-04-19T10:33:27;100015.38;;;22.68;25.11
79144;BME280;68551;47.484;19.092;2023-04-19T10:36:36;100011.88;;;22.13;26.73
79144;BME280;68551;47.484;19.092;2023-04-19T10:39:43;100011.03;;;21.99;26.84
79144;BME280;68551;47.484;19.092;2023-04-19T10:49:26;100026.03;;;21.24;33.15
79144;BME280;68551;47.484;19.092;2023-04-19T10:52:29;100017.38;;;20.93;33.07
79144;BME280;68551;47.484;19.092;2023-04-19T10:55:32;100016.47;;;20.98;32.80
79144;BME280;68551;47.484;19.092;2023-04-19T11:05:26;100026.28;;;20.34;34.04
79144;BME280;68551;47.484;19.092;2023-04-19T11:08:31;100010.97;;;20.41;34.34
79144;BME280;68551;47.484;19.092;2023-04-19T11:11:38;100010.69;;;20.62;34.00
79144;BME280;68551;47.484;19.092;2023-04-19T11:14:42;100015.75;;;20.73;33.69
79144;BME280;68551;47.484;19.092;2023-04-19T11:17:49;100002.88;;;20.64;34.00
79144;BME280;68551;47.484;19.092;2023-04-19T11:21:17;100000.38;;;20.48;33.41
79144;BME280;68551;47.484;19.092;2023-04-19T11:24:19;100006.09;;;20.33;32.99
79144;BME280;68551;47.484;19.092;2023-04-19T11:27:29;100007.72;;;20.34;33.40
79144;BME280;68551;47.484;19.092;2023-04-19T11:30:31;100000.28;;;20.53;33.01
79144;BME280;68551;47.484;19.092;2023-04-19T11:33:36;100006.69;;;20.68;34.62
79144;BME280;68551;47.484;19.092;2023-04-19T11:36:50;100006.47;;;20.83;33.85
79144;BME280;68551;47.484;19.092;2023-04-19T11:39:55;99999.88;;;20.79;32.88
79144;BME280;68551;47.484;19.092;2023-04-19T11:43:02;100004.22;;;20.85;31.17
79144;BME280;68551;47.484;19.092;2023-04-19T11:46:09;99994.19;;;20.89;31.43
79144;BME280;68551;47.484;19.092;2023-04-19T11:49:24;99991.13;;;20.91;33.10
79144;BME280;68551;47.484;19.092;2023-04-19T11:52:34;99990.44;;;20.80;35.48
79144;BME280;68551;47.484;19.092;2023-04-19T11:55:36;99992.56;;;20.50;36.16
79144;BME280;68551;47.484;19.092;2023-04-19T11:58:46;99989.88;;;20.45;35.49
79144;BME280;68551;47.484;19.092;2023-04-19T12:02:06;99986.25;;;20.26;37.50
79144;BME280;68551;47.484;19.092;2023-04-19T12:05:13;100000.03;;;20.07;38.26
79144;BME280;68551;47.484;19.092;2023-04-19T12:08:16;99996.53;;;20.02;38.26
79144;BME280;68551;47.484;19.092;2023-04-19T12:11:22;100001.97;;;19.88;38.55
79144;BME280;68551;47.484;19.092;2023-04-19T12:14:28;99999.94;;;19.94;38.87
79144;BME280;68551;47.484;19.092;2023-04-19T12:17:31;100000.06;;;19.83;39.24
79144;BME280;68551;47.484;19.092;2023-04-19T12:20:35;100005.78;;;19.92;39.18
79144;BME280;68551;47.484;19.092;2023-04-19T12:23:38;99999.13;;;19.93;39.47
79144;BME280;68551;47.484;19.092;2023-04-19T12:26:56;99997.84;;;19.86;39.71
79144;BME280;68551;47.484;19.092;2023-04-19T12:29:58;99994.13;;;19.71;37.70
79144;BME280;68551;47.484;19.092;2023-04-19T12:33:01;99985.19;;;19.79;37.04
79144;BME280;68551;47.484;19.092;2023-04-19T12:36:05;99984.06;;;19.80;37.96
79144;BME280;68551;47.484;19.092;2023-04-19T12:39:11;99978.63;;;19.94;37.62
79144;BME280;68551;47.484;19.092;2023-04-19T12:42:14;99979.94;;;20.02;37.92
79144;BME280;68551;47.484;19.092;2023-04-19T12:45:17;99979.59;;;20.27;36.73
79144;BME280;68551;47.484;19.092;2023-04-19T12:48:20;99982.59;;;20.31;35.96
79144;BME280;68551;47.484;19.092;2023-04-19T12:51:24;99978.66;;;20.37;35.64
79144;BME280;68551;47.484;19.092;2023-04-19T12:54:27;99973.75;;;20.29;36.69
79144;BME280;68551;47.484;19.092;2023-04-19T12:57:29;99976.44;;;20.15;35.90
79144;BME280;68551;47.484;19.092;2023-04-19T13:00:32;99971.34;;;20.22;35.54
79144;BME280;68551;47.484;19.092;2023-04-19T13:03:34;99976.59;;;20.05;35.08
79144;BME280;68551;47.484;19.092;2023-04-19T13:06:43;99963.50;;;20.10;34.57
79144;BME280;68551;47.484;19.092;2023-04-19T13:09:50;99986.72;;;20.33;35.87
79144;BME280;68551;47.484;19.092;2023-04-19T13:12:52;99952.53;;;20.05;37.53
79144;BME280;68551;47.484;19.092;2023-04-19T13:15:55;99974.53;;;19.92;37.76
79144;BME280;68551;47.484;19.092;2023-04-19T13:18:57;99966.66;;;19.56;39.13
79144;BME280;68551;47.484;19.092;2023-04-19T13:21:59;99978.34;;;19.48;38.76
79144;BME280;68551;47.484;19.092;2023-04-19T13:25:02;99976.66;;;19.23;39.44
79144;BME280;68551;47.484;19.092;2023-04-19T13:28:07;99980.47;;;19.27;38.28
79144;BME280;68551;47.484;19.092;2023-04-19T13:31:09;99977.47;;;19.53;38.35
79144;BME280;68551;47.484;19.092;2023-04-19T13:34:14;99973.38;;;19.74;36.85
79144;BME280;68551;47.484;19.092;2023-04-19T13:37:16;99971.88;;;19.81;37.28
79144;BME280;68551;47.484;19.092;2023-04-19T13:40:23;99970.53;;;19.55;37.54
79144;BME280;68551;47.484;19.092;2023-04-19T13:43:29;99961.66;;;19.05;38.31
79144;BME280;68551;47.484;19.092;2023-04-19T13:46:31;99972.47;;;19.26;38.56
79144;BME280;68551;47.484;19.092;2023-04-19T13:49:34;99967.75;;;19.31;39.26
79144;BME280;68551;47.484;19.092;2023-04-19T13:52:39;99964.53;;;19.48;38.67
79144;BME280;68551;47.484;19.092;2023-04-19T13:55:44;99960.91;;;19.53;38.21
79144;BME280;68551;47.484;19.092;2023-04-19T13:58:46;99961.34;;;19.36;39.29
79144;BME280;68551;47.484;19.092;2023-04-19T14:01:48;99954.22;;;19.30;39.23
79144;BME280;68551;47.484;19.092;2023-04-19T14:04:58;99957.69;;;19.40;40.93
79144;BME280;68551;47.484;19.092;2023-04-19T14:08:00;99949.56;;;19.25;41.75
79144;BME280;68551;47.484;19.092;2023-04-19T14:11:03;99959.75;;;19.01;43.04
79144;BME280;68551;47.484;19.092;2023-04-19T14:14:05;99955.88;;;19.02;43.07
79144;BME280;68551;47.484;19.092;2023-04-19T14:17:08;99973.84;;;18.99;41.69
79144;BME280;68551;47.484;19.092;2023-04-19T14:20:10;99959.88;;;18.86;41.95
79144;BME280;68551;47.484;19.092;2023-04-19T14:23:16;99966.50;;;18.85;42.98
79144;BME280;68551;47.484;19.092;2023-04-19T14:26:20;99954.75;;;18.74;42.61
79144;BME280;68551;47.484;19.092;2023-04-19T14:29:23;99956.47;;;18.65;42.90
79144;BME280;68551;47.484;19.092;2023-04-19T14:32:25;99961.41;;;18.68;42.61
79144;BME280;68551;47.484;19.092;2023-04-19T14:35:30;99958.44;;;18.59;44.04
79144;BME280;68551;47.484;19.092;2023-04-19T14:38:35;99955.66;;;18.54;43.26
79144;BME280;68551;47.484;19.092;2023-04-19T14:41:40;99963.19;;;18.49;44.46
79144;BME280;68551;47.484;19.092;2023-04-19T14:44:45;99951.34;;;18.43;44.08
79144;BME280;68551;47.484;19.092;2023-04-19T14:47:48;99964.47;;;18.66;43.93
79144;BME280;68551;47.484;19.092;2023-04-19T14:50:50;99964.47;;;18.66;43.72
79144;BME280;68551;47.484;19.092;2023-04-19T14:53:53;99967.16;;;18.71;44.13
79144;BME280;68551;47.484;19.092;2023-04-19T14:56:55;99974.34;;;18.72;43.54
79144;BME280;68551;47.484;19.092;2023-04-19T14:59:58;99960.22;;;18.79;43.54
79144;BME280;68551;47.484;19.092;2023-04-19T15:03:05;99965.69;;;18.84;42.94
79144;BME280;68551;47.484;19.092;2023-04-19T15:06:10;99972.66;;;18.76;43.58
79144;BME280;68551;47.484;19.092;2023-04-19T15:09:13;99974.91;;;18.69;43.60
79144;BME280;68551;47.484;19.092;2023-04-19T15:12:18;99985.13;;;18.69;44.12
79144;BME280;68551;47.484;19.092;2023-04-19T15:15:25;99982.63;;;18.72;44.20
79144;BME280;68551;47.484;19.092;2023-04-19T15:18:30;99981.69;;;18.43;45.49
79144;BME280;68551;47.484;19.092;2023-04-19T15:21:32;99984.25;;;18.34;45.34
79144;BME280;68551;47.484;19.092;2023-04-19T15:24:37;99929.34;;;17.84;45.54
79144;BME280;68551;47.484;19.092;2023-04-19T15:27:40;99985.34;;;17.79;45.98
79144;BME280;68551;47.484;19.092;2023-04-19T15:30:44;99991.38;;;17.86;45.89
79144;BME280;68551;47.484;19.092;2023-04-19T15:33:48;99996.38;;;17.74;45.93
79144;BME280;68551;47.484;19.092;2023-04-19T15:36:51;99994.44;;;17.69;46.36
79144;BME280;68551;47.484;19.092;2023-04-19T15:39:53;100011.25;;;17.78;46.92
79144;BME280;68551;47.484;19.092;2023-04-19T15:42:55;100008.00;;;17.66;47.08
79144;BME280;68551;47.484;19.092;2023-04-19T15:45:58;100000.63;;;17.26;47.98
79144;BME280;68551;47.484;19.092;2023-04-19T15:49:03;100012.69;;;17.35;48.20
79144;BME280;68551;47.484;19.092;2023-04-19T15:52:13;100024.53;;;17.46;47.57
79144;BME280;68551;47.484;19.092;2023-04-19T15:55:15;100032.25;;;17.39;47.41
79144;BME280;68551;47.484;19.092;2023-04-19T15:58:17;100022.63;;;17.16;48.05
79144;BME280;68551;47.484;19.092;2023-04-19T16:01:20;100017.66;;;17.13;47.83
79144;BME280;68551;47.484;19.092;2023-04-19T16:04:26;100030.91;;;16.95;46.72
79144;BME280;68551;47.484;19.092;2023-04-19T16:07:34;100032.00;;;17.05;45.84
79144;BME280;68551;47.484;19.092;2023-04-19T16:10:37;100030.34;;;16.93;45.78
79144;BME280;68551;47.484;19.092;2023-04-19T16:13:41;100034.75;;;16.99;45.70
79144;BME280;68551;47.484;19.092;2023-04-19T16:16:46;100043.81;;;16.85;45.51
79144;BME280;68551;47.484;19.092;2023-04-19T16:19:49;100036.38;;;16.70;45.88